Time;durP1;ratioP1;P1;durP2;ratioP2;P2;SDS_P1;SDS_P2;PMS_P1;PMS_P2;Temp;Humidity;BMP_temperature;BMP_pressure;BME280_temperature;BME280_humidity;BME280_pressure;Samples;Min_cycle;Max_cycle;Signal;HPM_P1;HPM_P2
2021/05/12 00:02:20;;;;;;;14.97;12.80;;;12.60;99.90;;;;;;4936659;29;20559;-77
2021/05/12 00:04:48;;;;;;;15.30;13.60;;;12.60;99.90;;;;;;4937338;29;20479;-78
2021/05/12 00:07:16;;;;;;;16.60;13.33;;;12.60;99.90;;;;;;4936200;29;20464;-77
2021/05/12 00:09:44;;;;;;;15.77;14.10;;;12.60;99.90;;;;;;4936232;29;20984;-77
2021/05/12 00:12:12;;;;;;;16.43;14.70;;;12.60;99.90;;;;;;4937494;29;20468;-77
2021/05/12 00:14:40;;;;;;;17.47;14.43;;;12.60;99.90;;;;;;4937273;29;20432;-77
2021/05/12 00:17:10;;;;;;;15.33;13.70;;;12.60;99.90;;;;;;4935741;29;20570;-78
2021/05/12 00:19:40;;;;;;;16.00;14.37;;;12.60;99.90;;;;;;4937292;29;20464;-77
2021/05/12 00:22:28;;;;;;;14.57;13.07;;;12.60;99.90;;;;;;4937744;29;20570;-77
2021/05/12 00:24:57;;;;;;;14.00;12.60;;;12.60;99.90;;;;;;4937750;29;20759;-77
2021/05/12 00:27:24;;;;;;;14.00;12.50;;;12.60;99.90;;;;;;4937837;29;20448;-77
2021/05/12 00:29:52;;;;;;;15.37;13.83;;;12.60;99.90;;;;;;4935948;29;20536;-77
2021/05/12 00:32:20;;;;;;;14.60;12.87;;;12.60;99.90;;;;;;4937069;29;20475;-77
2021/05/12 00:34:48;;;;;;;15.60;12.20;;;12.60;99.90;;;;;;4936086;29;20464;-77
2021/05/12 00:37:15;;;;;;;15.73;12.33;;;12.60;99.90;;;;;;4937102;29;20825;-77
2021/05/12 00:39:43;;;;;;;14.67;12.50;;;12.50;99.90;;;;;;4936991;29;20862;-77
2021/05/12 00:42:11;;;;;;;17.23;12.50;;;12.50;99.90;;;;;;4937096;29;20527;-77
2021/05/12 00:44:39;;;;;;;12.87;11.33;;;12.50;99.90;;;;;;4935886;29;20484;-77
2021/05/12 00:47:07;;;;;;;14.90;11.63;;;12.50;99.90;;;;;;4932797;29;20991;-77
2021/05/12 00:49:35;;;;;;;14.87;13.03;;;12.50;99.90;;;;;;4936869;29;20467;-77
2021/05/12 00:52:03;;;;;;;13.47;12.07;;;12.40;99.90;;;;;;4937055;29;20484;-77
2021/05/12 00:54:32;;;;;;;14.10;12.33;;;12.50;99.90;;;;;;4936746;29;20562;-77
2021/05/12 00:57:00;;;;;;;14.00;12.07;;;12.50;99.90;;;;;;4936877;29;20502;-77
2021/05/12 00:59:33;;;;;;;19.10;13.63;;;12.50;99.90;;;;;;4937532;29;20456;-78
2021/05/12 01:02:02;;;;;;;14.57;13.05;;;12.50;99.90;;;;;;4940488;29;20520;-78
2021/05/12 01:04:29;;;;;;;16.93;13.03;;;12.50;99.90;;;;;;4940907;29;20283;-78
2021/05/12 01:06:57;;;;;;;16.53;12.17;;;12.50;99.90;;;;;;4939138;29;20546;-77
2021/05/12 01:09:24;;;;;;;14.50;12.23;;;12.50;99.90;;;;;;4940963;29;20471;-77
2021/05/12 01:11:52;;;;;;;13.30;11.57;;;12.50;99.90;;;;;;4939334;29;20542;-77
2021/05/12 01:14:20;;;;;;;11.50;10.30;;;12.50;99.90;;;;;;4939260;29;20463;-77
2021/05/12 01:16:49;;;;;;;13.30;10.77;;;12.40;99.90;;;;;;4940588;29;20531;-77
2021/05/12 01:19:18;;;;;;;13.27;10.70;;;12.40;99.90;;;;;;4939193;29;20852;-77
2021/05/12 01:21:47;;;;;;;12.30;10.00;;;12.50;99.90;;;;;;4938818;29;21009;-78
2021/05/12 01:24:15;;;;;;;11.37;10.07;;;12.40;99.90;;;;;;4939143;29;20459;-78
2021/05/12 01:26:42;;;;;;;11.67;10.47;;;12.40;99.90;;;;;;4940932;29;20440;-78
2021/05/12 01:29:10;;;;;;;11.83;10.60;;;12.40;99.90;;;;;;4938478;29;21072;-78
2021/05/12 01:31:40;;;;;;;12.53;10.43;;;12.40;99.90;;;;;;4940771;29;20429;-78
2021/05/12 01:34:12;;;;;;;11.27;10.07;;;12.40;99.90;;;;;;4940821;29;20422;-77
2021/05/12 01:36:40;;;;;;;14.90;10.47;;;12.40;99.90;;;;;;4938671;29;20434;-77
2021/05/12 01:39:10;;;;;;;10.33;9.30;;;12.40;99.90;;;;;;4940371;29;21173;-77
2021/05/12 01:41:38;;;;;;;12.93;10.30;;;12.30;99.90;;;;;;4940094;29;20511;-77
2021/05/12 01:44:09;;;;;;;11.23;9.30;;;12.30;99.90;;;;;;4939057;29;20536;-77
2021/05/12 01:46:37;;;;;;;11.70;9.80;;;12.30;99.90;;;;;;4939797;29;20514;-77
2021/05/12 01:49:05;;;;;;;14.63;10.33;;;12.30;99.90;;;;;;4938330;29;20496;-77
2021/05/12 01:51:34;;;;;;;13.97;10.23;;;12.30;99.90;;;;;;4938755;29;20527;-77
2021/05/12 01:54:02;;;;;;;11.93;10.30;;;12.30;99.90;;;;;;4940164;29;20503;-78
2021/05/12 01:56:30;;;;;;;11.60;10.30;;;12.30;99.90;;;;;;4940051;29;20495;-78
2021/05/12 01:58:58;;;;;;;12.20;10.60;;;12.30;99.90;;;;;;4939900;29;20447;-78
2021/05/12 02:01:26;;;;;;;13.03;11.10;;;12.30;99.90;;;;;;4938484;29;20870;-78
2021/05/12 02:03:53;;;;;;;11.60;10.50;;;12.20;99.90;;;;;;4939900;29;20924;-78
2021/05/12 02:06:25;;;;;;;10.50;9.40;;;12.20;99.90;;;;;;4940050;29;20437;-78
2021/05/12 02:08:53;;;;;;;13.17;10.07;;;12.20;99.90;;;;;;4939333;29;20452;-78
2021/05/12 02:11:20;;;;;;;12.03;10.70;;;12.20;99.90;;;;;;4939013;29;20453;-78
2021/05/12 02:13:49;;;;;;;11.33;10.13;;;12.20;99.90;;;;;;4936456;29;20546;-77
2021/05/12 02:16:17;;;;;;;11.77;9.90;;;12.20;99.90;;;;;;4938064;29;20506;-77
2021/05/12 02:18:44;;;;;;;13.23;9.77;;;12.10;99.90;;;;;;4938076;29;20553;-77
2021/05/12 02:21:12;;;;;;;11.40;10.30;;;12.10;99.90;;;;;;4939155;29;20481;-77
2021/05/12 02:23:40;;;;;;;12.87;10.20;;;12.10;99.90;;;;;;4939274;29;20515;-77
2021/05/12 02:26:07;;;;;;;13.07;11.37;;;12.10;99.90;;;;;;4937549;29;20811;-77
2021/05/12 02:28:35;;;;;;;14.30;11.17;;;12.10;99.90;;;;;;4937556;29;20452;-77
2021/05/12 02:31:03;;;;;;;12.77;11.10;;;12.10;99.90;;;;;;4938828;29;20498;-77
2021/05/12 02:33:31;;;;;;;12.27;10.63;;;12.00;99.90;;;;;;4937440;29;20990;-77
2021/05/12 02:35:58;;;;;;;15.67;11.33;;;12.00;99.90;;;;;;4937876;29;20894;-77
2021/05/12 02:38:26;;;;;;;19.90;12.27;;;12.00;99.90;;;;;;4937952;29;20517;-77
2021/05/12 02:40:54;;;;;;;17.20;12.23;;;12.00;99.90;;;;;;4937668;29;20468;-77
2021/05/12 02:43:22;;;;;;;13.80;11.87;;;12.00;99.90;;;;;;4938998;29;20463;-78
2021/05/12 02:45:49;;;;;;;15.53;11.60;;;12.00;99.90;;;;;;4936504;29;20451;-77
2021/05/12 02:48:18;;;;;;;14.57;12.80;;;12.00;99.90;;;;;;4937644;29;20991;-77
2021/05/12 02:50:46;;;;;;;16.50;14.57;;;12.00;99.90;;;;;;4937435;29;20499;-77
2021/05/12 02:53:14;;;;;;;14.93;12.40;;;12.00;99.90;;;;;;4938879;29;20594;-77
2021/05/12 02:55:42;;;;;;;16.07;12.93;;;12.00;99.90;;;;;;4934341;29;20455;-77
2021/05/12 02:58:10;;;;;;;14.07;11.80;;;12.00;99.90;;;;;;4938969;29;20444;-77
2021/05/12 03:00:40;;;;;;;14.63;13.13;;;12.00;99.90;;;;;;4938513;29;20472;-77
2021/05/12 03:03:09;;;;;;;17.73;12.47;;;12.00;99.90;;;;;;4938832;29;20470;-77
2021/05/12 03:05:39;;;;;;;18.03;14.00;;;12.00;99.90;;;;;;4937253;29;20452;-78
2021/05/12 03:08:07;;;;;;;19.10;14.67;;;12.10;99.90;;;;;;4938312;29;20495;-77
2021/05/12 03:10:35;;;;;;;18.77;15.10;;;12.00;99.90;;;;;;4936794;29;20479;-77
2021/05/12 03:13:06;;;;;;;19.50;16.13;;;12.00;99.90;;;;;;4938320;29;20538;-77
2021/05/12 03:15:34;;;;;;;20.20;16.63;;;12.00;99.90;;;;;;4938523;29;20471;-77
2021/05/12 03:18:04;;;;;;;21.00;16.37;;;12.00;99.90;;;;;;4936991;29;20542;-77
2021/05/12 03:20:33;;;;;;;18.70;15.70;;;12.00;99.90;;;;;;4938318;29;20542;-77
2021/05/12 03:23:02;;;;;;;22.50;20.30;;;12.00;99.90;;;;;;4936248;29;20527;-77
2021/05/12 03:25:29;;;;;;;23.07;18.00;;;12.00;99.90;;;;;;4938240;29;20459;-77
2021/05/12 03:27:57;;;;;;;20.93;18.27;;;12.00;99.90;;;;;;4938585;29;20448;-77
2021/05/12 03:30:27;;;;;;;22.23;19.83;;;12.00;99.90;;;;;;4937430;29;20535;-77
2021/05/12 03:32:57;;;;;;;24.13;20.87;;;12.00;99.90;;;;;;4938364;29;20838;-77
2021/05/12 03:35:25;;;;;;;23.70;19.47;;;12.00;99.90;;;;;;4938496;29;20501;-77
2021/05/12 03:37:53;;;;;;;23.03;18.17;;;12.10;99.90;;;;;;4937462;29;20483;-77
2021/05/12 03:40:22;;;;;;;23.42;19.38;;;12.10;99.90;;;;;;4936014;29;20504;-77
2021/05/12 03:42:49;;;;;;;21.53;17.70;;;12.20;99.90;;;;;;4937257;29;20325;-79
2021/05/12 03:45:17;;;;;;;21.83;19.10;;;12.20;99.90;;;;;;4937975;29;20535;-77
2021/05/12 03:47:47;;;;;;;22.60;18.70;;;12.10;99.90;;;;;;4937943;29;20459;-78
2021/05/12 03:50:15;;;;;;;22.50;19.23;;;12.10;99.90;;;;;;4937808;29;20890;-77
2021/05/12 03:52:43;;;;;;;20.17;17.10;;;12.10;99.90;;;;;;4937962;29;20443;-77
2021/05/12 03:55:12;;;;;;;21.30;17.00;;;12.10;99.90;;;;;;4936861;29;20538;-77
2021/05/12 03:57:41;;;;;;;20.53;17.03;;;12.10;99.90;;;;;;4937507;29;20560;-77
2021/05/12 04:00:10;;;;;;;18.77;16.33;;;12.10;99.90;;;;;;4937566;29;20464;-77
2021/05/12 04:02:42;;;;;;;17.70;15.80;;;12.10;99.90;;;;;;4938983;29;20818;-77
2021/05/12 04:05:14;;;;;;;18.57;16.67;;;12.10;99.90;;;;;;4935656;29;20495;-77
2021/05/12 04:07:47;;;;;;;18.57;16.27;;;12.10;99.90;;;;;;4936670;29;20483;-77
2021/05/12 04:10:15;;;;;;;20.13;17.43;;;12.10;99.90;;;;;;4936462;29;20510;-77
2021/05/12 04:12:43;;;;;;;19.90;16.33;;;12.10;99.90;;;;;;4933158;29;20452;-77
2021/05/12 04:15:14;;;;;;;19.17;17.10;;;12.10;99.90;;;;;;4934976;29;20452;-77
2021/05/12 04:17:42;;;;;;;20.73;16.17;;;12.10;99.90;;;;;;4934942;29;20970;-78
2021/05/12 04:20:12;;;;;;;17.30;15.50;;;12.10;99.90;;;;;;4936297;29;21052;-77
2021/05/12 04:22:40;;;;;;;19.50;17.10;;;12.10;99.90;;;;;;4934991;29;20572;-77
2021/05/12 04:25:11;;;;;;;16.47;14.70;;;12.10;99.90;;;;;;4936302;29;20840;-76
2021/05/12 04:27:39;;;;;;;17.90;15.70;;;12.10;99.90;;;;;;4936556;29;20539;-77
2021/05/12 04:30:12;;;;;;;20.17;17.17;;;12.10;99.90;;;;;;4936517;29;20906;-77
2021/05/12 04:32:41;;;;;;;19.60;16.70;;;12.10;99.90;;;;;;4936738;29;20439;-77
2021/05/12 04:35:13;;;;;;;17.63;15.20;;;12.10;99.90;;;;;;4936299;29;20440;-77
2021/05/12 04:37:41;;;;;;;19.63;15.50;;;12.10;99.90;;;;;;4935002;29;20475;-77
2021/05/12 04:40:10;;;;;;;17.60;14.50;;;12.20;99.90;;;;;;4934846;29;20570;-77
2021/05/12 04:42:38;;;;;;;17.20;14.50;;;12.20;99.90;;;;;;4934902;29;20571;-77
2021/05/12 04:45:10;;;;;;;19.83;15.40;;;12.20;99.90;;;;;;4934513;29;20452;-77
2021/05/12 04:47:38;;;;;;;19.43;14.93;;;12.20;99.90;;;;;;4936234;29;20456;-77
2021/05/12 04:50:09;;;;;;;15.90;14.20;;;12.20;99.90;;;;;;4934832;29;20472;-77
2021/05/12 04:52:37;;;;;;;15.97;14.27;;;12.20;99.90;;;;;;4934762;29;20960;-77
2021/05/12 04:55:08;;;;;;;18.00;14.83;;;12.20;99.90;;;;;;4934729;29;20455;-77
2021/05/12 04:57:35;;;;;;;16.37;14.37;;;12.30;99.90;;;;;;4934211;29;20484;-77
2021/05/12 05:00:04;;;;;;;18.40;14.67;;;12.30;99.90;;;;;;4934622;29;20479;-77
2021/05/12 05:02:33;;;;;;;17.93;15.70;;;12.30;99.90;;;;;;4935822;29;20505;-78
2021/05/12 05:05:00;;;;;;;15.77;14.17;;;12.30;99.90;;;;;;4934933;29;20854;-76
2021/05/12 05:07:28;;;;;;;17.27;15.33;;;12.30;99.90;;;;;;4936220;29;20431;-78
2021/05/12 05:09:56;;;;;;;18.10;15.93;;;12.30;99.90;;;;;;4934068;29;20464;-78
2021/05/12 05:12:24;;;;;;;17.67;14.07;;;12.30;99.90;;;;;;4934560;29;20212;-77
2021/05/12 05:14:51;;;;;;;17.90;15.00;;;12.40;99.90;;;;;;4936061;29;20454;-77
2021/05/12 05:17:19;;;;;;;17.50;14.53;;;12.40;99.90;;;;;;4936172;29;20542;-77
2021/05/12 05:19:48;;;;;;;16.60;14.53;;;12.40;99.90;;;;;;4935204;29;20480;-77
2021/05/12 05:22:16;;;;;;;16.90;15.03;;;12.40;99.90;;;;;;4935324;29;20462;-77
2021/05/12 05:24:44;;;;;;;17.37;13.97;;;12.40;99.90;;;;;;4935770;29;20468;-77
2021/05/12 05:27:11;;;;;;;18.07;13.93;;;12.50;99.90;;;;;;4934584;29;20502;-77
2021/05/12 05:29:39;;;;;;;14.93;13.30;;;12.50;99.90;;;;;;4935590;29;21080;-77
2021/05/12 05:32:27;;;;;;;15.57;13.97;;;12.50;99.90;;;;;;4934522;29;20456;-77
2021/05/12 05:35:15;;;;;;;17.17;15.47;;;12.50;99.90;;;;;;4936001;29;20439;-77
2021/05/12 05:38:00;;;;;;;17.20;14.77;;;12.60;99.90;;;;;;4936161;29;20427;-77
2021/05/12 05:40:47;;;;;;;16.90;14.80;;;12.60;99.90;;;;;;4936435;29;20463;-78
2021/05/12 05:43:33;;;;;;;20.90;14.40;;;12.60;99.90;;;;;;4936130;29;21093;-77
2021/05/12 05:46:19;;;;;;;17.73;14.50;;;12.60;99.90;;;;;;4937515;29;20427;-77
2021/05/12 05:49:06;;;;;;;15.87;13.43;;;12.60;99.90;;;;;;4939353;29;20470;-77
2021/05/12 05:51:53;;;;;;;16.83;14.90;;;12.60;99.90;;;;;;4939645;29;20474;-77
2021/05/12 05:54:40;;;;;;;18.60;14.30;;;12.60;99.90;;;;;;4939076;29;20431;-77
2021/05/12 05:57:27;;;;;;;16.57;14.73;;;12.60;99.90;;;;;;4939247;29;20414;-77
2021/05/12 06:00:14;;;;;;;17.60;15.30;;;12.70;99.90;;;;;;4939161;29;20610;-77
2021/05/12 06:02:44;;;;;;;18.70;16.30;;;12.70;99.90;;;;;;4938768;29;20941;-77
2021/05/12 06:05:30;;;;;;;17.37;15.57;;;12.70;99.90;;;;;;4939078;29;20427;-77
2021/05/12 06:08:17;;;;;;;19.70;16.20;;;12.70;99.90;;;;;;4939274;29;20405;-77
2021/05/12 06:11:04;;;;;;;17.90;16.00;;;12.70;99.90;;;;;;4938905;29;20553;-77
2021/05/12 06:13:50;;;;;;;18.20;16.30;;;12.70;99.90;;;;;;4938835;29;20922;-77
2021/05/12 06:16:36;;;;;;;19.27;16.57;;;12.80;99.90;;;;;;4938937;29;20403;-77
2021/05/12 06:19:23;;;;;;;18.87;16.73;;;12.80;99.90;;;;;;4938560;29;20507;-78
2021/05/12 06:22:09;;;;;;;21.53;17.57;;;12.80;99.90;;;;;;4938675;29;20447;-77
2021/05/12 06:24:56;;;;;;;21.20;18.00;;;12.90;99.90;;;;;;4938387;29;20600;-77
2021/05/12 06:27:43;;;;;;;20.03;16.23;;;12.90;99.90;;;;;;4939001;29;20775;-77
2021/05/12 06:30:29;;;;;;;19.02;17.02;;;12.90;99.90;;;;;;4937769;29;20452;-77
2021/05/12 06:33:16;;;;;;;18.30;15.73;;;13.00;99.90;;;;;;4938553;29;20187;-77
2021/05/12 06:36:02;;;;;;;21.67;16.57;;;13.00;99.90;;;;;;4938842;29;20436;-77
2021/05/12 06:38:53;;;;;;;22.47;14.83;;;13.10;99.90;;;;;;4938703;29;20568;-77
2021/05/12 06:41:22;;;;;;;17.47;15.53;;;13.20;99.90;;;;;;4938526;29;20798;-77
2021/05/12 06:43:49;;;;;;;17.53;15.27;;;13.20;99.90;;;;;;4937969;29;20641;-77
2021/05/12 06:46:17;;;;;;;18.10;15.50;;;13.20;99.90;;;;;;4936819;29;20479;-77
2021/05/12 06:48:45;;;;;;;16.83;14.80;;;13.20;99.90;;;;;;4937768;29;20430;-77
2021/05/12 06:51:13;;;;;;;20.97;14.70;;;13.30;99.90;;;;;;4938210;29;20443;-77
2021/05/12 06:53:41;;;;;;;17.40;14.57;;;13.30;99.90;;;;;;4936527;29;20438;-77
2021/05/12 06:56:08;;;;;;;18.80;14.90;;;13.30;99.90;;;;;;4936546;29;20455;-77
2021/05/12 06:58:41;;;;;;;18.90;13.80;;;13.40;99.90;;;;;;4936439;29;20852;-77
2021/05/12 07:01:09;;;;;;;17.27;14.17;;;13.40;99.90;;;;;;4936633;29;20418;-77
2021/05/12 07:03:36;;;;;;;17.87;15.50;;;13.40;99.90;;;;;;4936445;29;20476;-77
2021/05/12 07:06:05;;;;;;;17.50;15.63;;;13.40;99.90;;;;;;4936467;29;20452;-77
2021/05/12 07:08:33;;;;;;;20.07;15.87;;;13.50;99.90;;;;;;4937650;29;20955;-77
2021/05/12 07:11:01;;;;;;;16.50;14.47;;;13.40;99.90;;;;;;4936191;29;20464;-76
2021/05/12 07:13:29;;;;;;;19.07;14.40;;;13.50;99.90;;;;;;4937510;29;20427;-78
2021/05/12 07:15:57;;;;;;;15.30;13.50;;;13.50;99.90;;;;;;4937414;29;20440;-77
2021/05/12 07:18:25;;;;;;;16.60;14.90;;;13.50;99.90;;;;;;4936090;29;20837;-77
2021/05/12 07:20:53;;;;;;;18.87;14.73;;;13.50;99.90;;;;;;4937225;29;20431;-78
2021/05/12 07:23:21;;;;;;;18.50;14.10;;;13.50;99.90;;;;;;4937579;29;20480;-78
2021/05/12 07:25:50;;;;;;;16.07;14.37;;;13.50;99.90;;;;;;4936038;29;20503;-78
2021/05/12 07:28:19;;;;;;;18.23;13.97;;;13.50;99.90;;;;;;4936076;29;20538;-78
2021/05/12 07:30:46;;;;;;;14.63;12.77;;;13.50;99.90;;;;;;4937442;29;20482;-77
2021/05/12 07:33:21;;;;;;;16.43;14.73;;;13.60;99.90;;;;;;4936079;29;20993;-77
2021/05/12 07:35:48;;;;;;;14.27;12.40;;;13.60;99.90;;;;;;4937700;29;20486;-77
2021/05/12 07:38:16;;;;;;;14.47;12.97;;;13.70;99.90;;;;;;4935785;29;20444;-77
2021/05/12 07:40:44;;;;;;;13.23;11.80;;;13.80;99.90;;;;;;4935759;29;20511;-77
2021/05/12 07:43:12;;;;;;;13.40;12.00;;;13.80;99.90;;;;;;4937228;29;20837;-77
2021/05/12 07:45:41;;;;;;;11.67;10.47;;;13.90;99.90;;;;;;4935628;29;20423;-77
2021/05/12 07:48:11;;;;;;;14.65;11.60;;;13.90;99.90;;;;;;4936809;29;20480;-78
2021/05/12 07:50:41;;;;;;;12.07;10.87;;;13.90;99.90;;;;;;4935631;29;20227;-78
2021/05/12 07:53:09;;;;;;;14.10;12.20;;;13.90;99.90;;;;;;4935704;29;20430;-77
2021/05/12 07:55:37;;;;;;;12.70;10.83;;;14.00;99.90;;;;;;4936867;29;20414;-77
2021/05/12 07:58:05;;;;;;;10.10;9.10;;;14.10;99.90;;;;;;4936646;29;20452;-77
2021/05/12 08:00:34;;;;;;;11.67;10.50;;;14.10;99.90;;;;;;4935468;29;20802;-78
2021/05/12 08:03:03;;;;;;;15.63;10.90;;;14.20;99.90;;;;;;4936720;29;20440;-77
2021/05/12 08:05:32;;;;;;;10.60;9.50;;;14.20;99.90;;;;;;4935148;29;20820;-77
2021/05/12 08:08:00;;;;;;;12.20;10.90;;;14.30;99.90;;;;;;4936722;29;20442;-77
2021/05/12 08:10:28;;;;;;;10.90;9.73;;;14.30;99.90;;;;;;4936832;29;20500;-77
2021/05/12 08:12:56;;;;;;;12.03;10.47;;;14.30;99.90;;;;;;4935424;29;20418;-77
2021/05/12 08:15:23;;;;;;;10.07;9.07;;;14.40;99.90;;;;;;4935174;29;20560;-77
2021/05/12 08:17:53;;;;;;;12.57;11.37;;;14.40;99.90;;;;;;4935057;29;20470;-77
2021/05/12 08:20:20;;;;;;;13.27;11.13;;;14.30;99.90;;;;;;4935921;29;20457;-77
2021/05/12 08:22:48;;;;;;;11.53;8.60;;;14.40;99.90;;;;;;4938370;29;20448;-77
2021/05/12 08:25:17;;;;;;;10.70;9.00;;;14.40;99.90;;;;;;4936597;29;20812;-77
2021/05/12 08:27:45;;;;;;;10.30;9.20;;;14.40;99.90;;;;;;4936277;29;20521;-77
2021/05/12 08:30:15;;;;;;;11.57;9.07;;;14.40;99.90;;;;;;4936291;29;20495;-77
2021/05/12 08:32:42;;;;;;;12.33;10.07;;;14.50;99.90;;;;;;4936673;29;20525;-77
2021/05/12 08:35:10;;;;;;;10.50;9.50;;;14.50;99.90;;;;;;4936276;29;20931;-77
2021/05/12 08:37:38;;;;;;;10.80;9.37;;;14.50;99.90;;;;;;4935071;29;20452;-79
2021/05/12 08:40:06;;;;;;;13.13;10.03;;;14.50;99.90;;;;;;4936234;29;20486;-78
2021/05/12 08:42:36;;;;;;;12.27;9.10;;;14.60;99.90;;;;;;4937866;29;20454;-79
2021/05/12 08:45:05;;;;;;;12.17;9.50;;;14.60;99.90;;;;;;4937873;29;20956;-79
2021/05/12 08:47:37;;;;;;;10.80;9.63;;;14.60;99.90;;;;;;4936471;29;20458;-79
2021/05/12 08:50:09;;;;;;;12.00;9.43;;;14.60;99.90;;;;;;4937483;29;20469;-78
2021/05/12 08:52:38;;;;;;;12.17;9.57;;;14.60;99.90;;;;;;4938135;29;20731;-78
2021/05/12 08:55:08;;;;;;;11.87;9.77;;;14.60;99.90;;;;;;4936280;29;20455;-78
2021/05/12 08:57:36;;;;;;;11.73;8.47;;;14.60;99.90;;;;;;4936831;29;20920;-78
2021/05/12 09:00:07;;;;;;;9.40;8.50;;;14.70;99.90;;;;;;4936830;29;20893;-79
2021/05/12 09:02:35;;;;;;;9.20;8.30;;;14.70;99.90;;;;;;4937191;29;20444;-79
2021/05/12 09:05:05;;;;;;;10.73;8.70;;;14.70;99.90;;;;;;4937722;29;20442;-79
2021/05/12 09:07:33;;;;;;;8.47;7.43;;;14.80;99.90;;;;;;4935148;29;20235;-78
2021/05/12 09:10:01;;;;;;;10.63;7.90;;;14.80;99.90;;;;;;4936468;29;20463;-77
2021/05/12 09:12:43;;;;;;;10.53;8.33;;;14.80;99.90;;;;;;4937707;29;20410;-77
2021/05/12 09:15:12;;;;;;;9.53;8.63;;;14.80;99.90;;;;;;4937581;29;20426;-77
2021/05/12 09:17:41;;;;;;;10.03;9.03;;;14.80;99.90;;;;;;4936059;29;20477;-78
2021/05/12 09:20:27;;;;;;;10.77;8.73;;;14.80;99.90;;;;;;4936564;29;20511;-78
2021/05/12 09:23:09;;;;;;;10.27;9.27;;;14.80;99.90;;;;;;4939882;29;20399;-79
2021/05/12 09:25:40;;;;;;;10.30;9.40;;;14.90;99.90;;;;;;4938887;29;20441;-78
2021/05/12 09:28:14;;;;;;;9.47;8.50;;;14.90;99.90;;;;;;4940537;29;20426;-78
2021/05/12 09:30:42;;;;;;;10.37;9.30;;;14.90;99.90;;;;;;4941392;29;20789;-79
2021/05/12 09:33:26;;;;;;;10.43;8.50;;;14.90;99.90;;;;;;4940529;29;20422;-78
2021/05/12 09:35:54;;;;;;;11.23;10.07;;;14.90;99.90;;;;;;4938180;29;20450;-78
2021/05/12 09:38:25;;;;;;;11.87;9.20;;;14.90;99.90;;;;;;4938131;29;20514;-78
2021/05/12 09:41:09;;;;;;;10.80;9.23;;;15.00;99.90;;;;;;4937966;29;21042;-78
2021/05/12 09:43:45;;;;;;;9.20;8.23;;;15.00;99.90;;;;;;4939413;29;20430;-78
2021/05/12 09:46:18;;;;;;;10.40;9.30;;;15.10;99.90;;;;;;4938037;29;20471;-78
2021/05/12 09:49:05;;;;;;;10.07;9.03;;;15.20;99.90;;;;;;4939301;29;20436;-78
2021/05/12 09:51:35;;;;;;;12.73;10.87;;;15.30;99.90;;;;;;4937791;29;20470;-78
2021/05/12 09:54:08;;;;;;;10.80;9.70;;;15.40;99.90;;;;;;4937769;29;20418;-78
2021/05/12 09:56:40;;;;;;;9.10;8.20;;;15.60;99.90;;;;;;4937937;29;20894;-78
2021/05/12 09:59:11;;;;;;;10.03;9.03;;;15.70;99.90;;;;;;4937653;29;20476;-78
2021/05/12 10:01:40;;;;;;;10.97;9.47;;;15.70;99.90;;;;;;4938953;29;20457;-78
2021/05/12 10:04:21;;;;;;;9.93;8.90;;;15.80;99.90;;;;;;4938742;29;20511;-78
2021/05/12 10:06:50;;;;;;;10.20;9.17;;;15.90;99.90;;;;;;4937553;29;20430;-78
2021/05/12 10:09:19;;;;;;;9.30;8.40;;;15.90;99.90;;;;;;4937300;29;20518;-78
2021/05/12 10:12:09;;;;;;;10.47;9.50;;;15.90;99.90;;;;;;4938642;29;20444;-78
2021/05/12 10:14:40;;;;;;;9.53;7.60;;;15.90;99.90;;;;;;4938953;29;20403;-77
2021/05/12 10:17:10;;;;;;;8.87;7.97;;;16.00;99.90;;;;;;4937163;29;20989;-77
2021/05/12 10:19:38;;;;;;;9.60;8.17;;;15.90;99.90;;;;;;4938516;29;20438;-78
2021/05/12 10:22:06;;;;;;;9.60;8.60;;;15.90;99.90;;;;;;4937776;29;20838;-78
2021/05/12 10:24:36;;;;;;;9.10;8.20;;;15.90;99.90;;;;;;4937477;29;20905;-78
2021/05/12 10:27:09;;;;;;;9.53;8.50;;;16.00;99.90;;;;;;4938799;29;20452;-78
2021/05/12 10:29:42;;;;;;;10.07;9.07;;;16.00;99.90;;;;;;4937656;29;20455;-78
2021/05/12 10:32:36;;;;;;;10.27;9.33;;;16.00;99.90;;;;;;4938346;29;20531;-78
2021/05/12 10:35:06;;;;;;;9.87;8.93;;;16.10;99.90;;;;;;4938564;29;20788;-78
2021/05/12 10:37:37;;;;;;;11.00;9.57;;;16.10;99.90;;;;;;4937246;29;20506;-78
2021/05/12 10:40:06;;;;;;;9.67;8.77;;;16.10;99.90;;;;;;4937330;29;20454;-78
2021/05/12 10:42:52;;;;;;;9.30;8.50;;;16.30;99.90;;;;;;4937121;29;20517;-78
2021/05/12 10:45:50;;;;;;;9.07;8.17;;;16.60;99.90;;;;;;4938200;29;20455;-78
2021/05/12 10:48:34;;;;;;;9.90;8.40;;;16.80;99.90;;;;;;4927946;29;20456;-78
2021/05/12 10:51:04;;;;;;;9.17;8.27;;;17.00;99.90;;;;;;4935422;29;20479;-78
2021/05/12 10:53:33;;;;;;;7.93;7.23;;;17.10;99.90;;;;;;4936757;29;20485;-77
2021/05/12 10:56:03;;;;;;;10.13;7.70;;;17.10;99.90;;;;;;4936899;29;20779;-77
2021/05/12 10:58:33;;;;;;;6.23;4.70;;;17.10;99.90;;;;;;4937957;29;20833;-77
2021/05/12 11:01:03;;;;;;;5.67;5.17;;;17.20;99.90;;;;;;4937992;29;20558;-77
2021/05/12 11:04:06;;;;;;;5.67;5.17;;;17.40;99.90;;;;;;4937090;29;20495;-80
2021/05/12 11:07:09;;;;;;;6.17;4.93;;;17.50;99.90;;;;;;4934071;29;20464;-80
2021/05/12 11:09:47;;;;;;;5.60;5.03;;;17.70;99.90;;;;;;4942620;29;20478;-79
2021/05/12 11:12:33;;;;;;;12.60;6.70;;;17.80;99.90;;;;;;4941321;29;20432;-79
2021/05/12 11:15:05;;;;;;;5.10;4.70;;;17.90;99.90;;;;;;4940644;29;20465;-79
2021/05/12 11:17:52;;;;;;;5.90;4.47;;;17.90;99.90;;;;;;4939862;29;20483;-79
2021/05/12 11:20:23;;;;;;;4.90;3.95;;;17.90;99.90;;;;;;4939750;29;20437;-78
2021/05/12 11:22:54;;;;;;;6.20;3.43;;;18.00;99.90;;;;;;4939395;29;20561;-78
2021/05/12 11:25:35;;;;;;;3.83;3.43;;;18.00;99.90;;;;;;4939560;29;20535;-78
2021/05/12 11:28:59;;;;;;;4.97;2.60;;;17.90;99.90;;;;;;4940829;29;20424;-80
2021/05/12 11:31:38;;;;;;;4.10;3.00;;;17.80;99.90;;;;;;4935832;29;20503;-78
2021/05/12 11:34:07;;;;;;;4.20;3.80;;;18.10;99.90;;;;;;4939259;29;20247;-78
2021/05/12 11:36:39;;;;;;;5.90;3.70;;;18.20;99.90;;;;;;4940748;29;20464;-78
2021/05/12 11:39:08;;;;;;;6.50;3.70;;;18.20;99.90;;;;;;4940131;29;20455;-78
2021/05/12 11:41:35;;;;;;;3.47;3.17;;;18.20;99.90;;;;;;4939508;29;20484;-78
2021/05/12 11:44:04;;;;;;;3.97;3.57;;;18.20;99.90;;;;;;4938464;29;20444;-78
2021/05/12 11:46:33;;;;;;;4.53;2.87;;;18.20;99.90;;;;;;4940871;29;20500;-78
2021/05/12 11:49:04;;;;;;;4.33;2.80;;;18.20;99.90;;;;;;4938969;29;20810;-78
2021/05/12 11:51:35;;;;;;;5.77;2.03;;;18.20;99.90;;;;;;4939774;29;20428;-79
2021/05/12 11:54:05;;;;;;;2.27;1.93;;;18.20;99.90;;;;;;4939577;29;20427;-79
2021/05/12 11:56:33;;;;;;;6.07;2.00;;;18.20;99.90;;;;;;4938141;29;20504;-79
2021/05/12 11:59:03;;;;;;;2.40;2.03;;;18.20;99.90;;;;;;4938129;29;20564;-80
2021/05/12 12:01:35;;;;;;;4.03;2.50;;;18.20;99.90;;;;;;4940780;28;20444;-80
2021/05/12 12:04:21;;;;;;;3.70;2.70;;;18.30;99.90;;;;;;4939239;29;20448;-80
2021/05/12 12:06:50;;;;;;;3.80;2.60;;;18.40;99.90;;;;;;4940325;29;20554;-80
2021/05/12 12:09:19;;;;;;;4.07;2.97;;;18.50;99.90;;;;;;4938293;29;20476;-79
2021/05/12 12:11:47;;;;;;;6.90;2.70;;;18.60;99.90;;;;;;4939746;29;20845;-79
2021/05/12 12:14:16;;;;;;;4.30;2.40;;;18.70;99.90;;;;;;4938214;29;20877;-81
2021/05/12 12:16:46;;;;;;;5.67;3.13;;;18.70;99.90;;;;;;4938102;29;20482;-80
2021/05/12 12:19:15;;;;;;;3.10;2.30;;;18.70;99.90;;;;;;4937960;29;20620;-80
2021/05/12 12:21:44;;;;;;;3.83;2.87;;;18.70;99.90;;;;;;4939376;29;20771;-80
2021/05/12 12:24:15;;;;;;;3.43;2.53;;;18.70;99.90;;;;;;4937714;29;21044;-80
2021/05/12 12:26:47;;;;;;;4.50;2.90;;;18.70;99.90;;;;;;4938456;29;20491;-80
2021/05/12 12:29:19;;;;;;;4.07;2.53;;;18.80;99.90;;;;;;4937963;29;20326;-79
2021/05/12 12:31:48;;;;;;;3.70;2.77;;;18.80;99.90;;;;;;4937965;29;20561;-79
2021/05/12 12:34:20;;;;;;;3.30;3.07;;;18.80;99.90;;;;;;4939562;29;20949;-79
2021/05/12 12:37:03;;;;;;;3.45;2.60;;;18.80;99.90;;;;;;4936881;29;20493;-79
2021/05/12 12:39:45;;;;;;;4.57;3.10;;;18.80;99.90;;;;;;4939255;29;20263;-79
2021/05/12 12:42:17;;;;;;;4.93;2.90;;;18.70;99.90;;;;;;4938027;29;20444;-79
2021/05/12 12:44:46;;;;;;;5.50;3.00;;;18.50;99.90;;;;;;4938013;29;20475;-79
2021/05/12 12:47:16;;;;;;;4.20;2.60;;;18.50;99.90;;;;;;4939969;29;20440;-79
2021/05/12 12:49:47;;;;;;;6.13;3.10;;;18.50;99.90;;;;;;4937935;29;20468;-79
2021/05/12 12:52:21;;;;;;;4.37;3.00;;;18.60;99.90;;;;;;4938486;29;20850;-79
2021/05/12 12:54:55;;;;;;;4.50;3.00;;;18.60;99.90;;;;;;4940709;29;20478;-79
2021/05/12 12:57:23;;;;;;;3.97;2.70;;;18.70;99.90;;;;;;4942162;29;20443;-79